createdAt,value
2019-01-30T00:02:08.577Z,-1.82
2019-01-30T00:04:42.975Z,-1.78
2019-01-30T00:07:17.220Z,-1.73
2019-01-30T00:09:51.448Z,-1.73
2019-01-30T00:12:25.690Z,-1.73
2019-01-30T00:15:00.874Z,-1.72
2019-01-30T00:17:35.138Z,-1.70
2019-01-30T00:20:09.706Z,-1.74
2019-01-30T00:22:45.432Z,-1.74
2019-01-30T00:25:19.650Z,-1.77
2019-01-30T00:27:53.886Z,-1.73
2019-01-30T00:30:28.904Z,-1.70
2019-01-30T00:33:03.243Z,-1.68
2019-01-30T00:35:37.539Z,-1.79
2019-01-30T00:38:11.767Z,-1.78
2019-01-30T00:40:47.104Z,-1.71
2019-01-30T00:43:23.121Z,-1.69
2019-01-30T00:45:57.292Z,-1.81
2019-01-30T00:48:31.534Z,-1.69
2019-01-30T00:51:05.784Z,-1.70
2019-01-30T00:53:40.076Z,-1.68
2019-01-30T00:56:14.309Z,-1.64
2019-01-30T00:58:48.527Z,-1.68
2019-01-30T01:01:22.719Z,-1.62
2019-01-30T01:03:56.977Z,-1.53
2019-01-30T01:06:31.306Z,-1.49
2019-01-30T01:09:09.674Z,-1.42
2019-01-30T01:11:44.063Z,-1.40
2019-01-30T01:14:18.313Z,-1.33
2019-01-30T01:16:53.704Z,-1.28
2019-01-30T01:19:27.990Z,-1.13
2019-01-30T01:22:02.204Z,-1.12
2019-01-30T01:24:37.945Z,-1.12
2019-01-30T01:27:12.198Z,-0.98
2019-01-30T01:29:46.515Z,-0.98
2019-01-30T01:32:20.843Z,-0.92
2019-01-30T01:34:55.295Z,-0.89
2019-01-30T01:37:29.482Z,-0.86
2019-01-30T01:40:04.027Z,-0.81
2019-01-30T01:42:38.230Z,-0.65
2019-01-30T01:45:15.207Z,-0.67
2019-01-30T01:47:49.526Z,-0.64
2019-01-30T01:50:23.970Z,-0.68
2019-01-30T01:52:58.286Z,-0.70
2019-01-30T01:55:32.490Z,-0.70
2019-01-30T01:58:06.672Z,-0.69
2019-01-30T02:00:40.906Z,-0.74
2019-01-30T02:03:15.338Z,-0.58
2019-01-30T02:05:49.594Z,-0.44
2019-01-30T02:08:23.794Z,-0.51
2019-01-30T02:10:58.013Z,-0.58
2019-01-30T02:13:32.213Z,-0.59
2019-01-30T02:16:06.460Z,-0.54
2019-01-30T02:18:40.648Z,-0.51
2019-01-30T02:21:14.878Z,-0.51
2019-01-30T02:23:49.107Z,-0.52
2019-01-30T02:26:23.311Z,-0.50
2019-01-30T02:28:57.507Z,-0.59
2019-01-30T02:31:31.734Z,-0.59
2019-01-30T02:34:05.914Z,-0.52
2019-01-30T02:36:58.545Z,-0.58
2019-01-30T02:39:32.782Z,-0.66
2019-01-30T02:42:06.979Z,-0.60
2019-01-30T02:44:41.193Z,-0.63
2019-01-30T02:47:15.447Z,-0.53
2019-01-30T02:49:49.666Z,-0.60
2019-01-30T02:52:23.888Z,-0.64
2019-01-30T02:54:58.088Z,-0.75
2019-01-30T02:57:32.321Z,-0.65
2019-01-30T03:00:08.538Z,-0.70
2019-01-30T03:02:42.758Z,-0.74
2019-01-30T03:05:16.967Z,-0.68
2019-01-30T03:07:51.187Z,-0.34
2019-01-30T03:10:25.409Z,-0.44
2019-01-30T03:12:59.613Z,-0.55
2019-01-30T03:15:33.841Z,-0.69
2019-01-30T03:18:08.145Z,-0.73
2019-01-30T03:20:42.358Z,-0.70
2019-01-30T03:23:16.588Z,-0.61
2019-01-30T03:25:50.804Z,-0.59
2019-01-30T03:28:24.994Z,-0.31
2019-01-30T03:31:15.617Z,-0.73
2019-01-30T03:33:35.132Z,-0.74
2019-01-30T03:36:09.342Z,-0.69
2019-01-30T03:38:43.547Z,-0.71
2019-01-30T03:41:17.769Z,-0.65
2019-01-30T03:43:51.980Z,-0.76
2019-01-30T03:46:26.193Z,-0.61
2019-01-30T03:49:00.415Z,-0.57
2019-01-30T03:51:34.936Z,-0.56
2019-01-30T03:54:09.170Z,-0.69
2019-01-30T03:56:43.392Z,-0.64
2019-01-30T03:59:17.585Z,-0.56
2019-01-30T04:01:51.823Z,-0.65
2019-01-30T04:04:26.014Z,-0.50
2019-01-30T04:07:00.238Z,-0.34
2019-01-30T04:09:34.437Z,-0.33
2019-01-30T04:12:08.684Z,-0.19
2019-01-30T04:14:42.863Z,-0.25
2019-01-30T04:17:17.096Z,-0.18
2019-01-30T04:19:51.290Z,-0.07
2019-01-30T04:22:25.550Z,-0.06
2019-01-30T04:24:59.722Z,-0.11
2019-01-30T04:27:33.999Z,-0.07
2019-01-30T04:30:12.002Z,0.31
2019-01-30T04:32:46.228Z,0.22
2019-01-30T04:35:20.415Z,0.09
2019-01-30T04:37:54.644Z,0.13
2019-01-30T04:40:28.845Z,0.09
2019-01-30T04:43:03.076Z,0.06
2019-01-30T04:45:37.293Z,0.06
2019-01-30T04:48:11.513Z,0.03
2019-01-30T04:50:45.722Z,0.05
2019-01-30T04:53:19.945Z,0.01
2019-01-30T04:55:54.151Z,0.01
2019-01-30T04:58:28.354Z,0.01
2019-01-30T05:01:02.593Z,-0.01
2019-01-30T05:03:36.850Z,0.20
2019-01-30T05:06:11.060Z,0.51
2019-01-30T05:08:45.309Z,0.19
2019-01-30T05:11:19.546Z,0.18
2019-01-30T05:13:53.753Z,0.09
2019-01-30T05:16:27.999Z,0.11
2019-01-30T05:19:02.195Z,0.21
2019-01-30T05:21:36.395Z,0.26
2019-01-30T05:24:10.619Z,0.29
2019-01-30T05:26:44.882Z,0.30
2019-01-30T05:29:19.059Z,0.19
2019-01-30T05:32:01.002Z,0.40
2019-01-30T05:34:48.331Z,0.37
2019-01-30T05:37:22.575Z,0.26
2019-01-30T05:39:56.780Z,0.37
2019-01-30T05:42:30.999Z,0.30
2019-01-30T05:45:05.886Z,0.34
2019-01-30T05:47:40.149Z,0.36
2019-01-30T05:50:53.866Z,0.33
2019-01-30T05:53:28.116Z,0.30
2019-01-30T05:56:02.384Z,0.27
2019-01-30T05:58:36.600Z,0.37
2019-01-30T06:01:10.865Z,0.30
2019-01-30T06:03:45.174Z,0.38
2019-01-30T06:06:19.383Z,0.29
2019-01-30T06:08:53.582Z,0.25
2019-01-30T06:11:27.806Z,0.45
2019-01-30T06:14:02.019Z,0.40
2019-01-30T06:16:36.267Z,0.43
2019-01-30T06:19:10.469Z,0.43
2019-01-30T06:21:44.731Z,0.45
2019-01-30T06:24:18.971Z,0.53
2019-01-30T06:26:53.205Z,0.71
2019-01-30T06:29:27.426Z,0.71
2019-01-30T06:32:01.677Z,0.59
2019-01-30T06:34:35.885Z,0.54
2019-01-30T06:37:10.087Z,0.58
2019-01-30T06:39:44.295Z,0.67
2019-01-30T06:42:18.504Z,0.55
2019-01-30T06:44:52.725Z,0.53
2019-01-30T06:47:26.923Z,0.53
2019-01-30T06:50:01.158Z,0.56
2019-01-30T06:52:35.369Z,0.54
2019-01-30T06:55:09.720Z,0.52
2019-01-30T06:57:43.915Z,0.56
2019-01-30T07:00:20.056Z,0.50
2019-01-30T07:03:33.827Z,0.53
2019-01-30T07:06:08.038Z,0.70
2019-01-30T07:08:42.294Z,0.75
2019-01-30T07:11:16.519Z,0.70
2019-01-30T07:13:50.763Z,0.75
2019-01-30T07:16:24.997Z,0.69
2019-01-30T07:18:59.267Z,0.56
2019-01-30T07:21:33.480Z,0.58
2019-01-30T07:24:07.804Z,0.60
2019-01-30T07:26:42.017Z,0.61
2019-01-30T07:29:16.290Z,0.64
2019-01-30T07:31:50.520Z,0.73
2019-01-30T07:34:24.756Z,0.79
2019-01-30T07:36:59.028Z,0.80
2019-01-30T07:39:33.265Z,0.86
2019-01-30T07:42:07.529Z,0.80
2019-01-30T07:44:50.443Z,0.82
2019-01-30T07:47:17.722Z,0.82
2019-01-30T07:49:51.961Z,1.00
2019-01-30T07:52:26.190Z,0.89
2019-01-30T07:55:00.424Z,0.94
2019-01-30T07:57:34.714Z,0.92
2019-01-30T08:00:12.570Z,0.87
2019-01-30T08:02:52.902Z,0.83
2019-01-30T08:05:22.999Z,0.81
2019-01-30T08:07:57.188Z,1.06
2019-01-30T08:10:31.535Z,1.18
2019-01-30T08:13:06.299Z,1.29
2019-01-30T08:15:41.848Z,1.34
2019-01-30T08:18:16.208Z,1.50
2019-01-30T08:20:50.520Z,1.62
2019-01-30T08:23:25.156Z,1.65
2019-01-30T08:25:59.611Z,1.66
2019-01-30T08:28:34.026Z,1.82
2019-01-30T08:31:08.492Z,1.94
2019-01-30T08:33:42.720Z,2.02
2019-01-30T08:36:16.999Z,2.22
2019-01-30T08:38:51.330Z,2.20
2019-01-30T08:41:25.571Z,2.26
2019-01-30T08:43:59.839Z,2.35
2019-01-30T08:46:37.768Z,2.47
2019-01-30T08:49:12.031Z,2.62
2019-01-30T08:51:46.302Z,2.80
2019-01-30T08:54:20.672Z,2.81
2019-01-30T08:56:54.968Z,2.96
2019-01-30T08:59:29.191Z,2.97
2019-01-30T09:02:03.407Z,3.09
2019-01-30T09:04:37.663Z,3.18
2019-01-30T09:07:11.883Z,3.30
2019-01-30T09:09:46.126Z,3.46
2019-01-30T09:12:21.916Z,3.49
2019-01-30T09:14:57.234Z,3.53
2019-01-30T09:17:31.480Z,3.44
2019-01-30T09:20:07.629Z,3.64
2019-01-30T09:22:41.860Z,3.69
2019-01-30T09:25:18.339Z,3.77
2019-01-30T09:27:52.896Z,3.89
2019-01-30T09:30:29.302Z,3.74
2019-01-30T09:33:03.532Z,3.71
2019-01-30T09:35:37.788Z,3.71
2019-01-30T09:38:12.118Z,3.73
2019-01-30T09:40:46.464Z,3.82
2019-01-30T09:43:20.705Z,3.84
2019-01-30T09:45:54.927Z,3.92
2019-01-30T09:48:29.147Z,4.00
2019-01-30T09:51:03.386Z,4.20
2019-01-30T09:53:37.741Z,4.34
2019-01-30T09:56:11.954Z,4.38
2019-01-30T09:58:46.190Z,4.37
2019-01-30T10:01:20.536Z,4.39
2019-01-30T10:03:54.994Z,4.50
2019-01-30T10:06:29.271Z,4.65
2019-01-30T10:09:04.377Z,4.84
2019-01-30T10:11:38.626Z,5.01
2019-01-30T10:14:12.838Z,4.94
2019-01-30T10:16:47.391Z,5.09
2019-01-30T10:19:21.637Z,4.96
2019-01-30T10:21:55.874Z,5.06
2019-01-30T10:24:30.208Z,5.06
2019-01-30T10:27:04.527Z,5.02
2019-01-30T10:29:38.781Z,5.06
2019-01-30T10:32:13.118Z,4.83
2019-01-30T10:34:47.363Z,4.93
2019-01-30T10:37:22.712Z,4.89
2019-01-30T10:39:57.020Z,4.88
2019-01-30T10:42:31.263Z,4.90
2019-01-30T10:45:06.640Z,4.93
2019-01-30T10:47:40.890Z,4.86
2019-01-30T10:50:17.130Z,4.94
2019-01-30T10:52:51.480Z,4.77
2019-01-30T10:55:27.490Z,4.76
2019-01-30T10:58:03.679Z,4.88
2019-01-30T11:00:40.915Z,4.82
2019-01-30T11:03:15.346Z,4.86
2019-01-30T11:05:49.689Z,4.79
2019-01-30T11:08:23.936Z,4.90
2019-01-30T11:11:07.558Z,4.98
2019-01-30T11:13:35.245Z,4.90
2019-01-30T11:16:09.460Z,4.86
2019-01-30T11:18:43.755Z,4.79
2019-01-30T11:21:17.969Z,4.88
2019-01-30T11:23:52.356Z,4.92
2019-01-30T11:26:26.648Z,4.98
2019-01-30T11:29:00.898Z,5.16
2019-01-30T11:31:35.134Z,5.31
2019-01-30T11:34:09.387Z,5.34
2019-01-30T11:36:43.704Z,5.31
2019-01-30T11:39:17.979Z,5.43
2019-01-30T11:41:52.195Z,5.48
2019-01-30T11:44:27.967Z,5.37
2019-01-30T11:47:02.330Z,5.30
2019-01-30T11:49:36.573Z,5.28
2019-01-30T11:52:12.696Z,5.18
2019-01-30T11:54:47.062Z,5.29
2019-01-30T11:57:21.289Z,5.50
2019-01-30T11:59:55.525Z,5.49
2019-01-30T12:02:29.764Z,5.50
2019-01-30T12:05:04.019Z,5.59
2019-01-30T12:07:38.303Z,5.58
2019-01-30T12:10:12.695Z,5.66
2019-01-30T12:12:46.911Z,5.73
2019-01-30T12:15:21.638Z,5.65
2019-01-30T12:17:55.979Z,5.71
2019-01-30T12:20:30.240Z,5.56
2019-01-30T12:23:05.084Z,5.50
2019-01-30T12:25:39.355Z,5.50
2019-01-30T12:28:13.844Z,5.55
2019-01-30T12:30:48.088Z,5.49
2019-01-30T12:33:22.323Z,5.36
2019-01-30T12:35:56.593Z,5.20
2019-01-30T12:38:30.838Z,5.27
2019-01-30T12:41:05.192Z,5.25
2019-01-30T12:43:39.477Z,5.09
2019-01-30T12:46:13.823Z,5.15
2019-01-30T12:48:48.944Z,5.15
2019-01-30T12:51:23.355Z,5.23
2019-01-30T12:53:57.566Z,5.10
2019-01-30T12:56:31.795Z,5.07
2019-01-30T12:59:06.046Z,5.00
2019-01-30T13:01:40.318Z,5.01
2019-01-30T13:04:14.578Z,5.01
2019-01-30T13:06:48.815Z,5.01
2019-01-30T13:09:23.027Z,4.93
2019-01-30T13:11:57.352Z,4.98
2019-01-30T13:14:31.649Z,5.03
2019-01-30T13:17:05.985Z,5.07
2019-01-30T13:19:40.228Z,5.20
2019-01-30T13:22:14.586Z,5.16
2019-01-30T13:24:49.998Z,5.20
2019-01-30T13:27:24.711Z,5.24
2019-01-30T13:29:58.940Z,5.19
2019-01-30T13:32:34.056Z,5.16
2019-01-30T13:35:08.740Z,5.20
2019-01-30T13:37:42.984Z,5.27
2019-01-30T13:40:20.330Z,5.33
2019-01-30T13:42:54.569Z,5.33
2019-01-30T13:45:29.884Z,5.25
2019-01-30T13:48:05.313Z,5.22
2019-01-30T13:50:39.747Z,5.20
2019-01-30T13:53:14.484Z,5.22
2019-01-30T13:55:48.774Z,5.16
2019-01-30T13:58:23.060Z,4.94
2019-01-30T14:00:57.340Z,5.05
2019-01-30T14:03:31.554Z,5.04
2019-01-30T14:06:05.787Z,5.01
2019-01-30T14:08:40.029Z,5.00
2019-01-30T14:11:14.293Z,4.99
2019-01-30T14:13:48.555Z,5.04
2019-01-30T14:16:22.852Z,4.94
2019-01-30T14:18:57.076Z,4.92
2019-01-30T14:21:31.350Z,5.01
2019-01-30T14:24:05.644Z,4.95
2019-01-30T14:26:39.912Z,4.96
2019-01-30T14:29:14.209Z,4.92
2019-01-30T14:31:48.485Z,4.92
2019-01-30T14:34:22.706Z,4.94
2019-01-30T14:36:56.944Z,4.83
2019-01-30T14:39:31.162Z,4.91
2019-01-30T14:42:05.512Z,4.84
2019-01-30T14:44:39.792Z,4.80
2019-01-30T14:47:14.005Z,4.72
2019-01-30T14:49:48.536Z,4.78
2019-01-30T14:52:22.762Z,4.74
2019-01-30T14:54:57.244Z,4.80
2019-01-30T14:57:31.507Z,4.70
2019-01-30T15:00:07.983Z,4.71
2019-01-30T15:02:42.230Z,4.64
2019-01-30T15:05:22.441Z,4.59
2019-01-30T15:07:52.665Z,4.38
2019-01-30T15:10:27.032Z,4.48
2019-01-30T15:13:01.283Z,4.58
2019-01-30T15:15:35.630Z,4.66
2019-01-30T15:18:10.082Z,4.55
2019-01-30T15:20:44.299Z,4.40
2019-01-30T15:23:18.558Z,4.43
2019-01-30T15:25:52.786Z,4.49
2019-01-30T15:28:27.081Z,4.45
2019-01-30T15:31:01.327Z,4.43
2019-01-30T15:33:35.692Z,4.56
2019-01-30T15:36:09.934Z,4.47
2019-01-30T15:38:44.513Z,4.24
2019-01-30T15:41:18.765Z,4.14
2019-01-30T15:43:53.014Z,4.15
2019-01-30T15:46:27.321Z,4.20
2019-01-30T15:49:03.094Z,3.96
2019-01-30T15:51:37.389Z,4.10
2019-01-30T15:54:11.664Z,4.19
2019-01-30T15:56:45.915Z,4.10
2019-01-30T15:59:20.219Z,4.09
2019-01-30T16:01:54.507Z,4.06
2019-01-30T16:04:29.702Z,4.09
2019-01-30T16:07:03.919Z,4.03
2019-01-30T16:09:38.161Z,3.81
2019-01-30T16:12:12.457Z,3.91
2019-01-30T16:14:46.767Z,3.96
2019-01-30T16:17:21.047Z,3.89
2019-01-30T16:19:55.357Z,3.98
2019-01-30T16:22:29.613Z,3.74
2019-01-30T16:25:09.218Z,3.83
2019-01-30T16:27:40.302Z,3.84
2019-01-30T16:30:17.630Z,3.75
2019-01-30T16:32:51.895Z,3.79
2019-01-30T16:35:28.255Z,3.63
2019-01-30T16:38:02.492Z,3.59
2019-01-30T16:40:36.777Z,3.55
2019-01-30T16:43:11.107Z,3.54
2019-01-30T16:45:45.416Z,3.54
2019-01-30T16:48:19.648Z,3.47
2019-01-30T16:50:53.900Z,3.55
2019-01-30T16:53:28.123Z,3.58
2019-01-30T16:56:02.376Z,3.51
2019-01-30T16:58:36.619Z,3.48
2019-01-30T17:01:10.934Z,3.61
2019-01-30T17:03:45.233Z,3.45
2019-01-30T17:06:19.609Z,3.40
2019-01-30T17:08:53.853Z,3.33
2019-01-30T17:11:28.338Z,3.42
2019-01-30T17:14:02.600Z,3.37
2019-01-30T17:16:36.871Z,3.38
2019-01-30T17:19:11.080Z,3.39
2019-01-30T17:21:45.394Z,3.41
2019-01-30T17:24:19.713Z,3.36
2019-01-30T17:26:54.071Z,3.42
2019-01-30T17:29:28.271Z,3.34
2019-01-30T17:32:02.501Z,3.31
2019-01-30T17:34:36.788Z,3.26
2019-01-30T17:37:11.358Z,3.28
2019-01-30T17:39:45.582Z,3.34
2019-01-30T17:42:21.905Z,3.20
2019-01-30T17:44:56.118Z,3.26
2019-01-30T17:47:30.560Z,3.38
2019-01-30T17:50:05.858Z,3.51
2019-01-30T17:52:40.458Z,3.38
2019-01-30T17:55:15.054Z,3.29
2019-01-30T17:57:50.634Z,3.41
2019-01-30T18:00:30.338Z,3.42
2019-01-30T18:03:04.748Z,3.32
2019-01-30T18:09:25.658Z,3.37
2019-01-30T18:12:00.256Z,3.16
2019-01-30T18:14:34.795Z,3.12
2019-01-30T18:17:09.056Z,3.32
2019-01-30T18:19:43.455Z,3.26
2019-01-30T18:22:17.784Z,3.32
2019-01-30T18:24:52.433Z,3.18
2019-01-30T18:27:26.746Z,3.25
2019-01-30T18:30:01.786Z,3.18
2019-01-30T18:32:36.264Z,3.06
2019-01-30T18:35:11.229Z,3.05
2019-01-30T18:37:45.918Z,3.13
2019-01-30T18:40:21.608Z,3.23
2019-01-30T18:42:56.002Z,3.25
2019-01-30T18:45:30.383Z,3.22
2019-01-30T18:48:04.812Z,3.09
2019-01-30T18:50:39.361Z,3.14
2019-01-30T18:53:13.641Z,3.07
2019-01-30T18:55:48.008Z,3.08
2019-01-30T18:58:22.428Z,3.10
2019-01-30T19:00:57.022Z,3.07
2019-01-30T19:03:31.338Z,3.04
2019-01-30T19:06:06.037Z,3.16
2019-01-30T19:08:40.346Z,3.07
2019-01-30T19:11:14.845Z,3.04
2019-01-30T19:13:49.138Z,3.08
2019-01-30T19:16:24.695Z,3.04
2019-01-30T19:18:58.975Z,3.03
2019-01-30T19:21:33.977Z,3.03
2019-01-30T19:24:08.269Z,2.95
2019-01-30T19:26:43.561Z,3.00
2019-01-30T19:29:17.870Z,2.90
2019-01-30T19:31:52.336Z,2.81
2019-01-30T19:34:26.640Z,2.91
2019-01-30T19:37:03.743Z,2.95
2019-01-30T19:39:37.070Z,2.87
2019-01-30T19:42:11.879Z,2.73
2019-01-30T19:44:46.248Z,2.60
2019-01-30T19:47:20.799Z,2.68
2019-01-30T19:49:55.173Z,2.61
2019-01-30T19:52:29.527Z,2.51
2019-01-30T19:55:04.032Z,2.46
2019-01-30T19:57:38.476Z,2.45
2019-01-30T20:00:16.603Z,2.39
2019-01-30T20:02:51.306Z,2.31
2019-01-30T20:05:27.053Z,2.27
2019-01-30T20:08:01.821Z,2.33
2019-01-30T20:10:36.663Z,2.19
2019-01-30T20:13:11.207Z,2.14
2019-01-30T20:15:45.569Z,2.18
2019-01-30T20:18:20.081Z,2.19
2019-01-30T20:20:54.394Z,2.16
2019-01-30T20:23:28.989Z,2.22
2019-01-30T20:26:03.537Z,2.25
2019-01-30T20:28:37.979Z,2.22
2019-01-30T20:31:12.278Z,2.15
2019-01-30T20:33:46.695Z,2.12
2019-01-30T20:36:21.241Z,2.02
2019-01-30T20:38:55.668Z,1.97
2019-01-30T20:41:33.022Z,2.00
2019-01-30T20:44:07.691Z,2.08
2019-01-30T20:46:42.045Z,2.00
2019-01-30T20:49:16.353Z,1.94
2019-01-30T20:51:50.836Z,1.83
2019-01-30T20:54:25.194Z,1.82
2019-01-30T20:56:59.539Z,1.84
2019-01-30T20:59:34.158Z,1.75
2019-01-30T21:02:08.690Z,1.71
2019-01-30T21:04:43.126Z,1.67
2019-01-30T21:07:17.570Z,1.61
2019-01-30T21:09:51.831Z,1.64
2019-01-30T21:12:26.200Z,1.46
2019-01-30T21:15:00.484Z,1.40
2019-01-30T21:17:34.937Z,1.32
2019-01-30T21:20:09.462Z,1.29
2019-01-30T21:22:44.129Z,1.25
2019-01-30T21:25:19.802Z,1.25
2019-01-30T21:27:54.154Z,1.21
2019-01-30T21:30:30.769Z,1.10
2019-01-30T21:33:05.106Z,1.09
2019-01-30T21:35:39.353Z,1.10
2019-01-30T21:38:13.734Z,0.98
2019-01-30T21:40:48.144Z,0.97
2019-01-30T21:43:22.455Z,0.91
2019-01-30T21:45:56.882Z,0.94
2019-01-30T21:48:31.187Z,0.93
2019-01-30T21:51:05.622Z,0.91
2019-01-30T21:53:39.985Z,0.87
2019-01-30T21:56:14.342Z,0.82
2019-01-30T21:58:48.907Z,0.76
2019-01-30T22:01:23.173Z,0.66
2019-01-30T22:03:57.519Z,0.67
2019-01-30T22:06:31.820Z,0.62
2019-01-30T22:09:08.027Z,0.43
2019-01-30T22:11:43.398Z,0.41
2019-01-30T22:14:17.789Z,0.38
2019-01-30T22:16:52.144Z,0.29
2019-01-30T22:19:26.411Z,0.28
2019-01-30T22:22:00.628Z,0.24
2019-01-30T22:24:35.011Z,0.30
2019-01-30T22:27:10.419Z,0.40
2019-01-30T22:29:44.671Z,0.19
2019-01-30T22:32:18.897Z,0.06
2019-01-30T22:34:53.247Z,-0.08
2019-01-30T22:37:27.513Z,-0.09
2019-01-30T22:40:01.845Z,-0.19
2019-01-30T22:42:36.116Z,-0.26
2019-01-30T22:45:12.552Z,-0.24
2019-01-30T22:47:46.938Z,-0.22
2019-01-30T22:50:21.396Z,-0.21
2019-01-30T22:52:55.611Z,-0.23
2019-01-30T22:55:29.869Z,-0.19
2019-01-30T22:58:04.096Z,-0.28
2019-01-30T23:01:19.839Z,-0.27
2019-01-30T23:04:21.967Z,-0.23
2019-01-30T23:07:26.173Z,-0.28
2019-01-30T23:10:41.182Z,-0.30
2019-01-30T23:13:25.090Z,-0.40
2019-01-30T23:16:30.962Z,-0.29
2019-01-30T23:19:25.427Z,-0.38
2019-01-30T23:22:14.203Z,-0.47
2019-01-30T23:25:28.496Z,-0.51
2019-01-30T23:28:28.368Z,-0.52
2019-01-30T23:31:20.609Z,-0.62
2019-01-30T23:34:39.454Z,-0.63
2019-01-30T23:37:46.862Z,-0.60
2019-01-30T23:41:03.499Z,-0.60
2019-01-30T23:44:07.881Z,-0.55
2019-01-30T23:47:13.947Z,-0.65
2019-01-30T23:50:21.843Z,-0.69
2019-01-30T23:53:31.996Z,-0.76
2019-01-30T23:56:16.876Z,-0.73
2019-01-30T23:59:17.851Z,-0.85
